Time;durP1;ratioP1;P1;durP2;ratioP2;P2;SDS_P1;SDS_P2;PMS_P1;PMS_P2;Temp;Humidity;BMP_temperature;BMP_pressure;BME280_temperature;BME280_humidity;BME280_pressure;Samples;Min_cycle;Max_cycle;Signal;HPM_P1;HPM_P2
2022/04/17 00:01:44;;;;;;;25.63;24.13;;;8.40;54.50;;;;;;5094118;28;20226;-74
2022/04/17 00:04:14;;;;;;;27.40;25.40;;;8.30;54.70;;;;;;5093673;28;20230;-74
2022/04/17 00:06:41;;;;;;;26.77;25.17;;;8.30;54.70;;;;;;5093990;28;20246;-74
2022/04/17 00:09:08;;;;;;;27.38;25.77;;;8.30;54.60;;;;;;5093387;28;20203;-74
2022/04/17 00:11:35;;;;;;;27.20;25.60;;;8.30;54.80;;;;;;5093877;28;20564;-74
2022/04/17 00:14:02;;;;;;;27.13;25.52;;;8.20;54.90;;;;;;5093669;28;20247;-74
2022/04/17 00:16:31;;;;;;;24.95;23.55;;;8.30;54.90;;;;;;5093327;28;20284;-74
2022/04/17 00:18:58;;;;;;;27.38;25.83;;;8.30;54.90;;;;;;5093542;28;20195;-74
2022/04/17 00:21:25;;;;;;;26.40;25.00;;;8.40;54.80;;;;;;5093361;28;20279;-74
2022/04/17 00:23:51;;;;;;;25.90;24.50;;;8.20;55.80;;;;;;5093494;28;20223;-74
2022/04/17 00:26:19;;;;;;;26.52;24.88;;;8.10;56.10;;;;;;5093634;28;20227;-74
2022/04/17 00:28:46;;;;;;;25.33;24.02;;;8.00;56.80;;;;;;5093528;28;20205;-74
2022/04/17 00:31:13;;;;;;;25.73;24.33;;;8.00;57.00;;;;;;5092900;28;20294;-74
2022/04/17 00:33:41;;;;;;;26.15;24.75;;;7.90;57.50;;;;;;5093162;28;20724;-74
2022/04/17 00:36:08;;;;;;;26.35;24.83;;;7.80;58.00;;;;;;5093356;28;20231;-74
2022/04/17 00:38:35;;;;;;;26.55;24.92;;;7.80;58.00;;;;;;5093236;28;20683;-74
2022/04/17 00:41:04;;;;;;;25.30;23.80;;;7.70;58.10;;;;;;5092913;28;20606;-74
2022/04/17 00:43:33;;;;;;;26.00;24.48;;;7.70;58.10;;;;;;5093175;28;20216;-74
2022/04/17 00:46:00;;;;;;;26.17;24.60;;;7.70;57.80;;;;;;5093088;28;20703;-74
2022/04/17 00:48:28;;;;;;;26.02;24.60;;;7.60;58.30;;;;;;5092927;28;20203;-74
2022/04/17 00:50:58;;;;;;;26.05;24.38;;;7.60;58.30;;;;;;5092738;28;20575;-74
2022/04/17 00:53:27;;;;;;;25.98;24.55;;;7.60;58.30;;;;;;5092929;28;20216;-74
2022/04/17 00:55:54;;;;;;;25.55;24.15;;;7.60;58.30;;;;;;5093101;28;20200;-74
2022/04/17 00:58:22;;;;;;;26.52;25.13;;;7.60;58.00;;;;;;5092740;28;20298;-74
2022/04/17 01:00:49;;;;;;;27.60;26.00;;;7.60;58.40;;;;;;5092560;28;20202;-74
2022/04/17 01:03:17;;;;;;;26.88;25.38;;;7.50;58.70;;;;;;5091950;28;20216;-74
2022/04/17 01:05:46;;;;;;;26.20;24.80;;;7.50;59.90;;;;;;5092934;28;20209;-74
2022/04/17 01:08:15;;;;;;;27.17;25.35;;;7.50;61.10;;;;;;5092703;28;20196;-74
2022/04/17 01:10:43;;;;;;;25.85;24.35;;;7.40;61.70;;;;;;5092234;28;20208;-74
2022/04/17 01:13:09;;;;;;;27.17;25.48;;;7.30;61.60;;;;;;5092596;28;20309;-74
2022/04/17 01:15:37;;;;;;;27.45;25.95;;;7.30;61.50;;;;;;5092386;28;20346;-74
2022/04/17 01:18:04;;;;;;;27.20;25.60;;;7.20;62.10;;;;;;5092669;28;20192;-74
2022/04/17 01:20:31;;;;;;;26.30;24.80;;;7.10;62.50;;;;;;5092008;28;20309;-74
2022/04/17 01:28:26;;;;;;;28.50;26.52;;;7.00;63.30;;;;;;5092294;28;20193;-74
2022/04/17 01:30:54;;;;;;;26.67;25.27;;;6.90;63.20;;;;;;5092124;28;20214;-74
2022/04/17 01:33:21;;;;;;;26.00;24.60;;;6.80;63.90;;;;;;5092464;28;20305;-74
2022/04/17 01:35:48;;;;;;;26.30;24.80;;;6.80;64.30;;;;;;5092432;28;20208;-74
2022/04/17 01:38:17;;;;;;;26.23;24.73;;;6.70;64.20;;;;;;5092416;28;20209;-74
2022/04/17 01:40:44;;;;;;;27.27;25.88;;;6.70;64.30;;;;;;5092195;28;20281;-74
2022/04/17 01:43:12;;;;;;;26.90;25.38;;;6.70;64.40;;;;;;5092433;28;20223;-74
2022/04/17 01:45:39;;;;;;;25.95;24.55;;;6.60;64.70;;;;;;5092383;28;20221;-74
2022/04/17 01:48:06;;;;;;;26.38;24.98;;;6.60;65.20;;;;;;5092440;28;20229;-74
2022/04/17 01:50:33;;;;;;;26.50;25.00;;;6.60;64.80;;;;;;5091950;28;20206;-74
2022/04/17 01:53:04;;;;;;;25.65;24.15;;;6.50;64.60;;;;;;5092340;28;20303;-74
2022/04/17 01:55:32;;;;;;;26.50;25.00;;;6.50;64.60;;;;;;5092367;28;20557;-74
2022/04/17 01:57:59;;;;;;;27.33;25.77;;;6.50;64.30;;;;;;5092305;28;20240;-74
2022/04/17 02:00:26;;;;;;;26.95;25.45;;;6.40;64.90;;;;;;5091861;28;20659;-74
2022/04/17 02:02:53;;;;;;;26.67;25.10;;;6.30;65.50;;;;;;5092195;28;20225;-74
2022/04/17 02:05:20;;;;;;;26.40;25.00;;;6.30;64.80;;;;;;5092008;28;20312;-74
2022/04/17 02:07:47;;;;;;;26.77;25.27;;;6.20;65.30;;;;;;5092281;28;20196;-74
2022/04/17 02:10:19;;;;;;;27.10;25.45;;;6.20;65.60;;;;;;5091340;28;20206;-74
2022/04/17 02:12:47;;;;;;;25.98;24.40;;;6.20;65.80;;;;;;5091965;28;20317;-74
2022/04/17 02:15:16;;;;;;;25.48;24.05;;;6.20;66.50;;;;;;5093909;28;20288;-74
2022/04/17 02:17:43;;;;;;;27.13;25.48;;;6.10;66.30;;;;;;5096022;28;20248;-74
2022/04/17 02:20:11;;;;;;;27.20;25.70;;;6.10;66.00;;;;;;5095342;28;20202;-74
2022/04/17 02:22:38;;;;;;;26.98;25.38;;;6.10;65.80;;;;;;5095927;28;20225;-74
2022/04/17 02:25:06;;;;;;;25.83;24.33;;;6.10;65.70;;;;;;5095871;28;20308;-74
2022/04/17 02:27:33;;;;;;;26.50;25.00;;;6.10;65.70;;;;;;5095936;28;20635;-74
2022/04/17 02:30:01;;;;;;;26.13;24.63;;;6.10;65.70;;;;;;5095162;28;20559;-74
2022/04/17 02:32:28;;;;;;;27.77;25.98;;;6.00;67.10;;;;;;5095807;28;20204;-74
2022/04/17 02:34:55;;;;;;;26.70;25.10;;;5.90;68.60;;;;;;5095711;28;20231;-74
2022/04/17 02:37:22;;;;;;;27.17;25.48;;;5.90;69.80;;;;;;5095696;28;20199;-74
2022/04/17 02:39:49;;;;;;;28.08;26.27;;;5.90;68.60;;;;;;5095006;28;20197;-74
2022/04/17 02:42:16;;;;;;;26.88;25.27;;;5.90;68.70;;;;;;5095485;28;20202;-74
2022/04/17 02:44:43;;;;;;;26.55;25.10;;;5.80;68.40;;;;;;5095212;28;20315;-74
2022/04/17 02:49:57;;;;;;;27.38;25.70;;;5.80;68.70;;;;;;5094981;28;20204;-74
2022/04/17 02:52:24;;;;;;;27.25;25.67;;;5.70;68.80;;;;;;5095323;28;20202;-74
2022/04/17 02:54:53;;;;;;;25.50;24.10;;;5.60;69.40;;;;;;5095226;28;20197;-74
2022/04/17 02:57:20;;;;;;;26.95;25.35;;;5.60;69.50;;;;;;5095026;28;20721;-74
2022/04/17 02:59:47;;;;;;;25.73;24.33;;;5.50;69.60;;;;;;5094798;28;20201;-74
2022/04/17 03:07:44;;;;;;;26.83;24.98;;;5.40;70.00;;;;;;5095101;28;20556;-74
2022/04/17 03:10:11;;;;;;;27.65;25.92;;;5.30;70.20;;;;;;5094287;28;20666;-74
2022/04/17 03:12:38;;;;;;;26.75;25.05;;;5.30;70.50;;;;;;5094980;28;20284;-74
2022/04/17 03:15:05;;;;;;;26.88;25.48;;;5.30;70.50;;;;;;5094667;28;20630;-74
2022/04/17 03:17:34;;;;;;;27.45;25.85;;;5.20;70.70;;;;;;5094782;28;20202;-74
2022/04/17 03:20:00;;;;;;;26.65;25.05;;;5.20;70.70;;;;;;5093979;28;20207;-74
2022/04/17 03:22:27;;;;;;;27.10;25.50;;;5.20;70.60;;;;;;5094782;28;20676;-74
2022/04/17 03:24:55;;;;;;;26.70;25.20;;;5.20;70.50;;;;;;5094587;28;20228;-74
2022/04/17 03:27:22;;;;;;;27.35;25.85;;;5.20;70.50;;;;;;5093631;28;20447;-74
2022/04/17 03:29:49;;;;;;;27.10;25.60;;;5.10;71.50;;;;;;5093923;28;20606;-74
2022/04/17 03:32:16;;;;;;;27.27;25.67;;;5.00;71.40;;;;;;5094670;28;20193;-74
2022/04/17 03:34:44;;;;;;;26.83;25.33;;;5.00;71.40;;;;;;5094225;28;20248;-74
2022/04/17 03:37:11;;;;;;;26.77;25.27;;;5.00;71.50;;;;;;5094542;28;20201;-74
2022/04/17 03:39:38;;;;;;;26.75;25.35;;;5.00;71.60;;;;;;5093675;28;20198;-74
2022/04/17 03:42:05;;;;;;;26.83;25.35;;;5.00;71.50;;;;;;5094531;28;20192;-74
2022/04/17 03:44:33;;;;;;;26.98;25.38;;;4.90;71.50;;;;;;5094149;28;20306;-74
2022/04/17 03:47:00;;;;;;;28.05;26.45;;;4.90;71.80;;;;;;5094238;28;20705;-74
2022/04/17 03:49:27;;;;;;;27.63;26.13;;;4.90;71.90;;;;;;5093319;28;20288;-74
2022/04/17 03:51:55;;;;;;;28.48;26.77;;;4.90;71.80;;;;;;5094306;28;20261;-73
2022/04/17 03:54:22;;;;;;;28.25;26.48;;;4.90;71.80;;;;;;5094023;28;20211;-74
2022/04/17 03:56:49;;;;;;;27.35;25.85;;;4.90;71.60;;;;;;5094325;28;20207;-74
2022/04/17 03:59:16;;;;;;;27.50;25.90;;;4.90;71.30;;;;;;5093342;28;20284;-74
2022/04/17 04:01:43;;;;;;;29.63;27.65;;;4.90;71.20;;;;;;5093778;28;20201;-74
2022/04/17 04:04:10;;;;;;;27.08;25.63;;;4.90;70.90;;;;;;5094100;28;20220;-74
2022/04/17 04:06:37;;;;;;;26.27;24.88;;;4.90;70.70;;;;;;5094591;28;20205;-74
2022/04/17 04:09:07;;;;;;;26.90;25.25;;;5.00;70.20;;;;;;5093959;28;20291;-74
2022/04/17 04:11:33;;;;;;;28.45;26.73;;;5.00;70.00;;;;;;5093972;28;20233;-73
2022/04/17 04:14:00;;;;;;;27.13;25.52;;;5.00;70.30;;;;;;5093716;28;20586;-74
2022/04/17 04:16:28;;;;;;;26.90;25.30;;;5.00;71.10;;;;;;5093423;28;20201;-74
2022/04/17 04:18:55;;;;;;;26.90;25.40;;;5.00;71.30;;;;;;5093996;28;20197;-74
2022/04/17 04:21:22;;;;;;;27.98;26.38;;;5.00;71.60;;;;;;5093448;28;20267;-73
2022/04/17 04:23:49;;;;;;;28.33;26.63;;;5.00;71.80;;;;;;5093721;28;20217;-74
2022/04/17 04:26:17;;;;;;;28.13;26.35;;;4.90;72.40;;;;;;5093859;28;20217;-74
2022/04/17 04:28:43;;;;;;;28.20;26.40;;;4.70;72.80;;;;;;5093492;28;20201;-74
2022/04/17 04:31:11;;;;;;;27.00;25.50;;;4.70;72.90;;;;;;5093326;28;20200;-74
2022/04/17 04:33:40;;;;;;;27.85;26.15;;;4.70;73.00;;;;;;5093365;28;20489;-74
2022/04/17 04:36:09;;;;;;;28.55;26.55;;;4.60;73.10;;;;;;5093363;28;20196;-74
2022/04/17 04:38:36;;;;;;;27.17;25.65;;;4.60;73.10;;;;;;5092989;28;20203;-74
2022/04/17 04:41:03;;;;;;;27.42;25.70;;;4.60;73.30;;;;;;5092671;28;20519;-74
2022/04/17 04:43:32;;;;;;;27.90;26.30;;;4.60;73.30;;;;;;5093194;28;20224;-74
2022/04/17 04:46:08;;;;;;;27.30;25.63;;;4.60;73.30;;;;;;5092933;28;20225;-73
2022/04/17 04:51:21;;;;;;;27.38;25.88;;;4.60;73.50;;;;;;5092413;28;20269;-74
2022/04/17 04:53:48;;;;;;;27.67;26.08;;;4.60;73.60;;;;;;5092949;28;20716;-74
2022/04/17 04:56:15;;;;;;;26.92;25.50;;;4.50;73.60;;;;;;5093018;28;20195;-74
2022/04/17 04:58:44;;;;;;;28.60;26.98;;;4.60;73.40;;;;;;5092961;28;20199;-74
2022/04/17 05:01:11;;;;;;;28.05;26.45;;;4.60;73.20;;;;;;5092415;28;20192;-74
2022/04/17 05:03:39;;;;;;;28.45;26.70;;;4.60;73.40;;;;;;5092881;28;20216;-74
2022/04/17 05:06:07;;;;;;;27.42;25.90;;;4.70;73.40;;;;;;5092448;28;20303;-74
2022/04/17 05:08:34;;;;;;;28.17;26.58;;;4.70;73.50;;;;;;5092569;28;20233;-74
2022/04/17 05:11:01;;;;;;;28.40;26.58;;;4.60;73.40;;;;;;5092145;28;20199;-74
2022/04/17 05:13:28;;;;;;;29.13;27.23;;;4.60;73.60;;;;;;5092539;28;20217;-74
2022/04/17 05:15:56;;;;;;;27.60;26.00;;;4.70;73.50;;;;;;5092150;28;20744;-74
2022/04/17 05:18:23;;;;;;;28.13;26.48;;;4.90;72.80;;;;;;5092564;28;20227;-74
2022/04/17 05:20:51;;;;;;;28.27;26.67;;;4.80;72.70;;;;;;5091873;28;20283;-74
2022/04/17 05:23:25;;;;;;;29.88;27.88;;;4.80;72.80;;;;;;5092630;28;20300;-74
2022/04/17 05:25:54;;;;;;;27.25;25.67;;;4.90;72.70;;;;;;5092357;28;20272;-74
2022/04/17 05:28:21;;;;;;;27.63;26.02;;;4.90;72.60;;;;;;5092267;28;20202;-74
2022/04/17 05:30:49;;;;;;;29.02;27.20;;;5.00;72.70;;;;;;5091824;28;20669;-74
2022/04/17 05:33:19;;;;;;;29.40;27.70;;;5.00;72.40;;;;;;5092373;28;20231;-74
2022/04/17 05:35:46;;;;;;;27.65;26.05;;;5.10;72.30;;;;;;5092352;28;20201;-74
2022/04/17 05:38:13;;;;;;;27.23;25.45;;;5.20;72.30;;;;;;5092139;28;20192;-74
2022/04/17 05:40:42;;;;;;;28.25;26.63;;;5.30;72.20;;;;;;5091624;28;20230;-74
2022/04/17 05:43:10;;;;;;;26.38;24.70;;;5.40;70.80;;;;;;5092477;28;20211;-74
2022/04/17 05:45:38;;;;;;;27.00;25.48;;;5.60;68.30;;;;;;5092110;28;20863;-74
2022/04/17 05:48:07;;;;;;;26.70;25.00;;;5.70;67.80;;;;;;5092173;28;20198;-74
2022/04/17 05:50:35;;;;;;;27.38;25.77;;;5.80;67.10;;;;;;5091107;28;20201;-74
2022/04/17 05:53:02;;;;;;;26.77;25.17;;;5.90;66.70;;;;;;5092117;28;20215;-74
2022/04/17 05:55:29;;;;;;;25.85;24.40;;;6.10;66.10;;;;;;5092199;28;20194;-74
2022/04/17 05:57:56;;;;;;;27.25;25.65;;;6.20;65.80;;;;;;5092075;28;20204;-74
2022/04/17 06:00:23;;;;;;;26.30;24.52;;;6.40;65.00;;;;;;5091399;28;20235;-74
2022/04/17 06:02:50;;;;;;;26.73;25.00;;;6.50;64.40;;;;;;5092025;28;20370;-74
2022/04/17 06:05:19;;;;;;;25.83;24.23;;;6.60;63.60;;;;;;5091894;28;20230;-74
2022/04/17 06:07:48;;;;;;;25.73;24.20;;;6.60;63.70;;;;;;5092042;28;20384;-74
2022/04/17 06:10:15;;;;;;;26.20;24.77;;;6.60;63.80;;;;;;5091188;28;20217;-74
2022/04/17 06:12:42;;;;;;;28.48;26.60;;;6.70;63.30;;;;;;5091744;28;20253;-74
2022/04/17 06:15:11;;;;;;;27.25;25.70;;;6.80;62.90;;;;;;5091595;28;20200;-74
2022/04/17 06:17:39;;;;;;;27.20;25.60;;;6.80;62.60;;;;;;5092129;28;20250;-74
2022/04/17 06:20:11;;;;;;;25.67;24.35;;;6.80;62.30;;;;;;5091181;28;20286;-74
2022/04/17 06:22:38;;;;;;;26.17;24.77;;;6.90;62.20;;;;;;5092120;28;20212;-74
2022/04/17 06:25:11;;;;;;;27.08;25.58;;;7.00;61.50;;;;;;5091796;28;20617;-74
2022/04/17 06:27:39;;;;;;;26.13;24.63;;;7.10;61.10;;;;;;5091969;28;20562;-74
2022/04/17 06:30:08;;;;;;;26.63;25.13;;;7.20;60.90;;;;;;5091344;28;20194;-74
2022/04/17 06:32:35;;;;;;;27.02;25.42;;;7.30;60.60;;;;;;5091737;28;20204;-74
2022/04/17 06:35:03;;;;;;;25.95;24.55;;;7.50;59.90;;;;;;5091643;28;20208;-74
2022/04/17 06:37:30;;;;;;;25.85;24.42;;;7.60;59.50;;;;;;5091696;28;20205;-74
2022/04/17 06:39:57;;;;;;;26.60;25.10;;;7.70;59.30;;;;;;5091332;28;20206;-74
2022/04/17 06:42:26;;;;;;;25.58;24.10;;;7.70;58.80;;;;;;5091701;28;20252;-74
2022/04/17 06:44:53;;;;;;;25.60;24.20;;;7.80;58.00;;;;;;5091768;28;20204;-74
2022/04/17 06:47:19;;;;;;;25.73;24.20;;;7.80;58.10;;;;;;5091517;28;20659;-74
2022/04/17 06:49:47;;;;;;;25.50;24.00;;;7.90;57.50;;;;;;5091134;28;20563;-74
2022/04/17 06:52:14;;;;;;;25.90;24.38;;;7.90;57.60;;;;;;5091615;28;20294;-74
2022/04/17 06:54:40;;;;;;;26.80;25.20;;;8.20;55.90;;;;;;5091503;28;20699;-74
2022/04/17 06:57:07;;;;;;;25.45;24.05;;;8.20;56.10;;;;;;5091613;28;20197;-74
2022/04/17 06:59:36;;;;;;;25.77;23.98;;;8.30;55.80;;;;;;5091072;28;20227;-74
2022/04/17 07:02:03;;;;;;;25.33;23.92;;;8.30;56.00;;;;;;5093277;28;20286;-74
2022/04/17 07:04:29;;;;;;;26.20;24.70;;;8.50;55.90;;;;;;5095253;28;20306;-74
2022/04/17 07:06:56;;;;;;;24.73;23.33;;;8.60;55.40;;;;;;5094791;28;20226;-74
2022/04/17 07:09:23;;;;;;;27.15;25.55;;;8.60;54.80;;;;;;5094295;28;20576;-74
2022/04/17 07:11:51;;;;;;;27.20;25.60;;;8.70;54.60;;;;;;5095083;28;20199;-74
2022/04/17 07:14:18;;;;;;;26.42;24.80;;;8.60;54.10;;;;;;5095091;28;20711;-74
2022/04/17 07:16:47;;;;;;;25.98;24.58;;;8.70;53.70;;;;;;5094508;28;20199;-74
2022/04/17 07:19:16;;;;;;;24.65;23.35;;;8.70;53.90;;;;;;5094075;28;20744;-74
2022/04/17 07:21:43;;;;;;;26.60;24.75;;;8.90;54.00;;;;;;5094601;28;20238;-74
2022/04/17 07:24:10;;;;;;;25.38;23.95;;;9.10;53.40;;;;;;5094680;28;20866;-74
2022/04/17 07:26:36;;;;;;;27.95;26.45;;;9.10;52.60;;;;;;5094841;28;20246;-74
2022/04/17 07:29:04;;;;;;;26.42;24.73;;;9.10;52.10;;;;;;5094268;28;20202;-74
2022/04/17 07:31:31;;;;;;;25.90;24.45;;;9.30;52.20;;;;;;5094493;28;20668;-74
2022/04/17 07:34:00;;;;;;;26.80;25.30;;;9.60;52.00;;;;;;5094456;28;20227;-74
2022/04/17 07:36:26;;;;;;;25.83;24.42;;;9.70;51.60;;;;;;5094452;28;20192;-74
2022/04/17 07:38:53;;;;;;;25.02;23.63;;;9.70;51.10;;;;;;5094444;28;20206;-74
2022/04/17 07:41:20;;;;;;;24.73;23.33;;;9.90;51.10;;;;;;5093898;28;20659;-74
2022/04/17 07:43:47;;;;;;;25.25;23.85;;;10.00;50.40;;;;;;5094300;28;20216;-75
2022/04/17 07:46:14;;;;;;;25.85;24.40;;;10.10;49.90;;;;;;5094428;28;20226;-74
2022/04/17 07:48:41;;;;;;;27.15;25.60;;;10.10;49.80;;;;;;5093972;28;20196;-74
2022/04/17 07:51:09;;;;;;;25.35;23.98;;;10.20;49.70;;;;;;5093767;28;20202;-74
2022/04/17 07:53:36;;;;;;;25.60;24.20;;;10.40;48.80;;;;;;5094097;28;20318;-74
2022/04/17 07:56:03;;;;;;;26.40;25.00;;;10.40;48.90;;;;;;5094209;28;20442;-74
2022/04/17 07:58:35;;;;;;;26.00;24.60;;;10.50;48.70;;;;;;5094148;28;20454;-74
2022/04/17 08:01:10;;;;;;;24.73;23.27;;;10.60;48.10;;;;;;5093406;28;20961;-74
2022/04/17 08:03:46;;;;;;;24.97;23.67;;;10.60;47.80;;;;;;5093906;28;20492;-74
2022/04/17 08:06:20;;;;;;;25.20;23.70;;;10.90;47.30;;;;;;5093980;28;20476;-74
2022/04/17 08:08:50;;;;;;;27.15;25.65;;;10.90;47.30;;;;;;5093705;28;20934;-74
2022/04/17 08:11:18;;;;;;;28.03;26.53;;;10.80;46.80;;;;;;5093341;28;20256;-74
2022/04/17 08:13:46;;;;;;;25.70;24.40;;;10.60;47.10;;;;;;5093095;28;20831;-74
2022/04/17 08:16:14;;;;;;;25.40;24.00;;;10.60;47.00;;;;;;5093343;28;20485;-74
2022/04/17 08:18:41;;;;;;;25.73;24.30;;;10.80;47.10;;;;;;5093739;28;20917;-74
2022/04/17 08:21:08;;;;;;;25.50;24.03;;;11.00;47.10;;;;;;5093013;28;20543;-74
2022/04/17 08:23:37;;;;;;;25.60;24.20;;;11.10;46.80;;;;;;5093371;28;20920;-74
2022/04/17 08:26:05;;;;;;;24.73;23.37;;;11.10;47.00;;;;;;5093274;28;20484;-74
2022/04/17 08:28:32;;;;;;;25.27;23.70;;;11.30;46.50;;;;;;5093414;28;20484;-74
2022/04/17 08:30:59;;;;;;;26.60;25.10;;;11.30;46.50;;;;;;5093058;28;20504;-75
2022/04/17 08:33:26;;;;;;;25.60;24.10;;;11.20;46.10;;;;;;5093412;28;20888;-75
2022/04/17 08:35:54;;;;;;;25.10;23.70;;;11.20;46.30;;;;;;5093269;28;20484;-74
2022/04/17 08:38:21;;;;;;;24.73;23.33;;;11.30;46.30;;;;;;5093449;28;20449;-74
2022/04/17 08:40:50;;;;;;;24.40;23.00;;;11.40;46.00;;;;;;5092952;28;20454;-74
2022/04/17 08:43:21;;;;;;;25.50;24.10;;;11.30;45.50;;;;;;5093599;28;20486;-74
2022/04/17 08:45:50;;;;;;;26.00;24.50;;;11.50;45.60;;;;;;5093096;28;20453;-75
2022/04/17 08:48:17;;;;;;;25.50;24.00;;;11.60;45.50;;;;;;5093024;28;20537;-75
2022/04/17 08:50:46;;;;;;;25.00;23.50;;;11.80;45.40;;;;;;5092670;28;20445;-75
2022/04/17 08:53:16;;;;;;;24.97;23.67;;;12.00;45.10;;;;;;5092986;28;20567;-74
2022/04/17 08:55:44;;;;;;;27.03;25.50;;;12.00;44.20;;;;;;5092970;28;20446;-75
2022/04/17 08:58:13;;;;;;;25.30;23.90;;;12.10;44.10;;;;;;5092808;28;20868;-75
2022/04/17 09:00:40;;;;;;;26.70;25.13;;;12.10;44.30;;;;;;5092418;28;20776;-74
2022/04/17 09:03:09;;;;;;;26.37;24.97;;;12.30;44.10;;;;;;5092715;28;20466;-75
2022/04/17 09:05:38;;;;;;;26.40;24.90;;;12.40;43.20;;;;;;5092753;28;20549;-75
2022/04/17 09:08:16;;;;;;;26.73;25.20;;;12.10;43.20;;;;;;5092509;28;20546;-75
2022/04/17 09:10:53;;;;;;;26.13;24.53;;;12.00;43.90;;;;;;5092360;28;20449;-75
2022/04/17 09:13:31;;;;;;;27.40;25.90;;;12.30;43.90;;;;;;5092737;28;20482;-75
2022/04/17 09:15:59;;;;;;;26.67;25.07;;;12.60;43.60;;;;;;5092063;28;20460;-75
2022/04/17 09:18:28;;;;;;;25.50;24.10;;;12.70;42.60;;;;;;5092561;28;20646;-75
2022/04/17 09:20:56;;;;;;;26.00;24.50;;;12.70;43.40;;;;;;5091998;28;20830;-75
2022/04/17 09:23:33;;;;;;;25.93;24.43;;;12.70;43.10;;;;;;5092310;28;20526;-75
2022/04/17 09:26:00;;;;;;;26.17;24.67;;;12.80;43.30;;;;;;5092036;28;20822;-75
2022/04/17 09:28:33;;;;;;;26.17;24.67;;;12.90;42.80;;;;;;5092333;28;20460;-75
2022/04/17 09:31:01;;;;;;;25.30;23.87;;;13.10;42.80;;;;;;5091901;28;20457;-75
2022/04/17 09:33:37;;;;;;;27.13;25.53;;;13.10;42.40;;;;;;5092532;28;20479;-75
2022/04/17 09:36:04;;;;;;;26.40;25.00;;;12.90;42.00;;;;;;5092464;28;20461;-75
2022/04/17 09:38:34;;;;;;;28.20;26.50;;;12.80;42.10;;;;;;5092154;28;20993;-75
2022/04/17 09:41:09;;;;;;;25.67;24.27;;;12.60;42.20;;;;;;5091750;28;20449;-75
2022/04/17 09:43:38;;;;;;;25.80;24.33;;;12.70;42.50;;;;;;5092065;28;20842;-75
2022/04/17 09:46:08;;;;;;;26.07;24.67;;;12.80;42.10;;;;;;5092240;28;20454;-75
2022/04/17 09:48:36;;;;;;;25.37;24.00;;;12.90;42.60;;;;;;5092117;28;20458;-75
2022/04/17 09:51:20;;;;;;;25.17;23.40;;;13.00;43.00;;;;;;5091832;28;20965;-75
2022/04/17 09:53:58;;;;;;;25.00;23.63;;;13.20;42.70;;;;;;5092231;28;20505;-75
2022/04/17 09:56:31;;;;;;;25.33;24.03;;;13.20;42.40;;;;;;5092014;28;20459;-75
2022/04/17 09:59:00;;;;;;;26.60;25.00;;;13.50;42.30;;;;;;5092229;28;20465;-75
2022/04/17 10:01:28;;;;;;;27.03;25.43;;;13.60;42.00;;;;;;5091932;28;20531;-75
2022/04/17 10:03:56;;;;;;;25.20;23.63;;;13.40;41.40;;;;;;5092027;28;20907;-75
2022/04/17 10:06:24;;;;;;;25.93;24.43;;;13.40;42.40;;;;;;5091810;28;21004;-75
2022/04/17 10:08:52;;;;;;;25.30;23.90;;;13.60;42.20;;;;;;5091945;28;20830;-75
2022/04/17 10:11:19;;;;;;;24.77;23.47;;;13.70;41.70;;;;;;5091451;28;20477;-75
2022/04/17 10:13:47;;;;;;;26.73;25.23;;;13.60;41.50;;;;;;5091932;28;20978;-75
2022/04/17 10:16:20;;;;;;;26.30;24.80;;;13.40;41.70;;;;;;5091560;28;20458;-75
2022/04/17 10:18:49;;;;;;;27.47;25.63;;;13.50;42.10;;;;;;5091915;28;20969;-75
2022/04/17 10:21:17;;;;;;;25.67;24.33;;;13.70;41.60;;;;;;5091257;28;20838;-75
2022/04/17 10:23:46;;;;;;;25.80;24.40;;;13.70;41.50;;;;;;5091817;28;20476;-75
2022/04/17 10:26:16;;;;;;;26.47;24.97;;;13.80;41.90;;;;;;5091836;28;20452;-75
2022/04/17 10:28:46;;;;;;;25.30;23.90;;;13.90;41.70;;;;;;5091727;28;20485;-75
2022/04/17 10:31:17;;;;;;;27.20;25.70;;;13.80;41.80;;;;;;5091430;28;20453;-75
2022/04/17 10:34:32;;;;;;;24.83;23.53;;;13.80;41.80;;;;;;5091805;28;20470;-75
2022/04/17 10:37:17;;;;;;;25.93;24.53;;;13.60;42.00;;;;;;5049153;28;20448;-75
2022/04/17 10:39:49;;;;;;;25.53;24.00;;;13.60;42.40;;;;;;5094923;28;20572;-75
2022/04/17 10:42:16;;;;;;;25.40;23.90;;;13.60;42.10;;;;;;5095786;28;20492;-75
2022/04/17 10:44:45;;;;;;;25.43;24.07;;;13.60;42.30;;;;;;5095384;28;20496;-75
2022/04/17 10:47:20;;;;;;;25.53;24.00;;;13.60;42.00;;;;;;5095448;28;20477;-75
2022/04/17 10:49:56;;;;;;;25.40;24.10;;;13.70;41.90;;;;;;5095010;28;20446;-75
2022/04/17 10:52:29;;;;;;;25.13;23.77;;;13.80;41.20;;;;;;5095185;28;20452;-75
2022/04/17 10:54:56;;;;;;;25.60;24.20;;;13.90;41.30;;;;;;5095384;28;20453;-75
2022/04/17 10:57:25;;;;;;;25.13;23.83;;;14.00;40.30;;;;;;5095253;28;20576;-74
2022/04/17 11:00:26;;;;;;;27.13;25.63;;;13.90;40.20;;;;;;5094694;28;20450;-75
2022/04/17 11:02:54;;;;;;;26.10;24.57;;;13.90;40.80;;;;;;5095192;28;20492;-75
2022/04/17 11:06:08;;;;;;;26.10;24.63;;;13.90;40.80;;;;;;5095077;28;20980;-75
2022/04/17 11:08:25;;;;;;;25.07;23.37;;;13.90;40.60;;;;;;5094469;28;20484;-75
2022/04/17 11:10:54;;;;;;;25.30;24.00;;;14.10;39.90;;;;;;5094501;28;20536;-75
2022/04/17 11:13:22;;;;;;;25.40;24.00;;;14.10;39.80;;;;;;5094795;28;20561;-75
2022/04/17 11:15:53;;;;;;;25.00;23.70;;;14.20;39.60;;;;;;5094651;28;20511;-75
2022/04/17 11:18:25;;;;;;;27.20;24.43;;;14.30;39.70;;;;;;5094854;28;20838;-75
2022/04/17 11:20:54;;;;;;;25.13;23.83;;;14.40;39.10;;;;;;5094333;28;20803;-75
2022/04/17 11:23:58;;;;;;;24.80;23.40;;;14.40;39.00;;;;;;5094699;28;20552;-75
2022/04/17 11:26:58;;;;;;;25.30;23.80;;;14.40;38.80;;;;;;5094939;28;20457;-75
2022/04/17 11:29:35;;;;;;;26.00;24.60;;;14.40;39.40;;;;;;5094011;28;20445;-75
2022/04/17 11:32:03;;;;;;;26.17;24.47;;;14.40;39.30;;;;;;5094590;28;20448;-75
2022/04/17 11:34:44;;;;;;;27.43;25.70;;;14.40;38.40;;;;;;5094512;28;20476;-75
2022/04/17 11:37:11;;;;;;;25.93;24.50;;;14.60;38.40;;;;;;5094561;28;20814;-75
2022/04/17 11:39:38;;;;;;;26.40;24.90;;;14.80;38.20;;;;;;5093836;28;20454;-75
2022/04/17 11:42:06;;;;;;;25.97;24.47;;;14.90;37.90;;;;;;5094434;28;20811;-75
2022/04/17 11:44:34;;;;;;;26.17;24.67;;;14.90;37.80;;;;;;5094322;28;20478;-75
2022/04/17 11:47:01;;;;;;;25.63;24.23;;;14.90;37.20;;;;;;5093392;28;20989;-75
2022/04/17 11:49:32;;;;;;;25.97;24.57;;;15.00;36.60;;;;;;5093652;28;20450;-75
2022/04/17 11:52:11;;;;;;;26.10;24.50;;;15.10;36.80;;;;;;5094584;28;20454;-75
2022/04/17 11:54:39;;;;;;;25.77;24.37;;;15.10;36.90;;;;;;5096421;28;20556;-75
2022/04/17 11:57:08;;;;;;;25.10;23.70;;;15.10;36.80;;;;;;5095425;28;20533;-75
2022/04/17 11:59:54;;;;;;;24.60;23.30;;;14.90;37.00;;;;;;5094363;28;20454;-75
2022/04/17 12:02:22;;;;;;;25.50;24.20;;;15.00;36.70;;;;;;5094096;28;20450;-75
2022/04/17 12:04:51;;;;;;;26.37;24.90;;;15.30;36.70;;;;;;5094277;28;20457;-75
2022/04/17 12:07:22;;;;;;;25.50;24.10;;;15.50;35.90;;;;;;5093790;28;20857;-75
2022/04/17 12:09:49;;;;;;;24.47;23.07;;;15.60;36.20;;;;;;5093254;28;20464;-75
2022/04/17 12:12:18;;;;;;;24.57;23.23;;;15.70;35.90;;;;;;5093933;28;20969;-75
2022/04/17 12:14:46;;;;;;;25.33;23.93;;;15.70;36.30;;;;;;5093678;28;20470;-75
2022/04/17 12:17:14;;;;;;;25.23;23.73;;;15.70;36.80;;;;;;5093829;28;20449;-75
2022/04/17 12:19:49;;;;;;;27.03;25.43;;;15.70;36.70;;;;;;5093148;28;20454;-75
2022/04/17 12:22:18;;;;;;;24.83;23.53;;;15.80;36.40;;;;;;5093804;28;20453;-75
2022/04/17 12:24:47;;;;;;;26.13;24.53;;;15.70;36.20;;;;;;5093662;28;20450;-75
2022/04/17 12:27:16;;;;;;;24.80;23.50;;;15.40;36.60;;;;;;5093456;28;20474;-75
2022/04/17 12:29:43;;;;;;;24.80;23.50;;;15.20;37.40;;;;;;5093166;28;20935;-74
2022/04/17 12:32:14;;;;;;;25.53;24.03;;;15.30;37.40;;;;;;5093497;28;20938;-75
2022/04/17 12:34:45;;;;;;;25.20;23.70;;;15.50;37.10;;;;;;5093728;28;20485;-75
2022/04/17 12:37:21;;;;;;;28.07;26.47;;;15.70;37.10;;;;;;5093495;28;20943;-74
2022/04/17 12:39:49;;;;;;;25.23;23.83;;;15.80;36.30;;;;;;5092842;28;20466;-75
2022/04/17 12:42:17;;;;;;;24.43;23.13;;;16.00;36.30;;;;;;5093212;28;20968;-75
2022/04/17 12:44:44;;;;;;;25.87;24.37;;;15.90;35.00;;;;;;5093333;28;20535;-75
2022/04/17 12:47:12;;;;;;;25.20;23.90;;;16.10;35.00;;;;;;5093139;28;20849;-75
2022/04/17 12:49:40;;;;;;;25.00;23.70;;;16.10;35.20;;;;;;5092549;28;20910;-75
2022/04/17 12:52:08;;;;;;;25.70;24.40;;;16.10;35.40;;;;;;5093137;28;20456;-75
2022/04/17 12:54:37;;;;;;;25.00;23.70;;;15.90;36.10;;;;;;5093125;28;20508;-75
2022/04/17 12:57:08;;;;;;;25.13;23.83;;;16.00;36.20;;;;;;5092915;28;20454;-75
2022/04/17 12:59:42;;;;;;;24.80;23.50;;;16.00;36.20;;;;;;5092433;28;20511;-75